createdAt,value
2018-07-06T00:00:26.683Z,82.30
2018-07-06T00:03:13.068Z,82.64
2018-07-06T00:05:59.653Z,83.10
2018-07-06T00:08:46.531Z,83.06
2018-07-06T00:11:32.892Z,83.91
2018-07-06T00:14:19.235Z,84.26
2018-07-06T00:17:05.679Z,83.98
2018-07-06T00:19:52.059Z,83.94
2018-07-06T00:22:38.591Z,82.63
2018-07-06T00:25:25.035Z,82.78
2018-07-06T00:28:11.735Z,83.22
2018-07-06T00:30:58.159Z,82.60
2018-07-06T00:33:44.538Z,82.59
2018-07-06T00:36:30.904Z,82.54
2018-07-06T00:39:17.153Z,82.59
2018-07-06T00:42:03.499Z,82.47
2018-07-06T00:44:49.935Z,82.10
2018-07-06T00:47:36.270Z,82.38
2018-07-06T00:50:22.691Z,81.89
2018-07-06T00:53:09.254Z,81.59
2018-07-06T00:55:55.859Z,82.12
2018-07-06T00:58:42.311Z,82.33
2018-07-06T01:01:28.961Z,82.25
2018-07-06T01:04:15.713Z,81.52
2018-07-06T01:07:02.396Z,81.80
2018-07-06T01:09:48.747Z,82.25
2018-07-06T01:12:40.379Z,82.03
2018-07-06T01:15:35.866Z,82.14
2018-07-06T01:18:22.202Z,82.43
2018-07-06T01:21:08.594Z,81.67
2018-07-06T01:23:55.166Z,81.33
2018-07-06T01:26:41.402Z,81.94
2018-07-06T01:29:27.771Z,81.13
2018-07-06T01:32:14.504Z,81.98
2018-07-06T01:35:00.783Z,80.95
2018-07-06T01:37:47.212Z,81.63
2018-07-06T01:40:33.547Z,82.29
2018-07-06T01:43:19.852Z,81.81
2018-07-06T01:46:06.275Z,82.46
2018-07-06T01:48:53.107Z,82.85
2018-07-06T01:51:39.543Z,82.83
2018-07-06T01:54:26.100Z,82.80
2018-07-06T01:57:12.543Z,82.90
2018-07-06T01:59:58.954Z,83.66
2018-07-06T02:02:45.319Z,83.61
2018-07-06T02:05:32.671Z,83.35
2018-07-06T02:08:19.111Z,82.95
2018-07-06T02:11:05.527Z,83.44
2018-07-06T02:13:52.003Z,83.52
2018-07-06T02:16:38.564Z,83.89
2018-07-06T02:19:25.060Z,83.63
2018-07-06T02:22:11.452Z,84.48
2018-07-06T02:24:57.847Z,83.81
2018-07-06T02:27:44.724Z,82.83
2018-07-06T02:30:31.427Z,83.70
2018-07-06T02:33:17.839Z,84.16
2018-07-06T02:36:04.231Z,83.88
2018-07-06T02:38:53.131Z,82.93
2018-07-06T02:41:39.475Z,83.47
2018-07-06T02:44:26.395Z,82.31
2018-07-06T02:47:13.079Z,82.71
2018-07-06T02:49:59.956Z,83.06
2018-07-06T02:52:46.710Z,82.86
2018-07-06T02:55:33.188Z,82.89
2018-07-06T02:58:20.621Z,83.53
2018-07-06T03:01:08.047Z,84.16
2018-07-06T03:03:54.459Z,84.23
2018-07-06T03:06:40.822Z,84.58
2018-07-06T03:09:27.232Z,84.46
2018-07-06T03:12:13.979Z,83.32
2018-07-06T03:15:00.463Z,83.56
2018-07-06T03:17:46.836Z,82.81
2018-07-06T03:20:33.215Z,82.82
2018-07-06T03:23:19.589Z,83.44
2018-07-06T03:26:06.611Z,83.21
2018-07-06T03:28:52.903Z,83.47
2018-07-06T03:31:39.199Z,83.79
2018-07-06T03:34:25.936Z,83.94
2018-07-06T03:37:12.302Z,83.30
2018-07-06T03:39:59.715Z,83.79
2018-07-06T03:42:46.093Z,83.39
2018-07-06T03:45:32.582Z,83.97
2018-07-06T03:48:19.273Z,83.97
2018-07-06T03:51:05.688Z,83.75
2018-07-06T03:53:52.079Z,84.01
2018-07-06T03:56:38.363Z,83.45
2018-07-06T03:59:25.007Z,83.70
2018-07-06T04:02:11.347Z,83.07
2018-07-06T04:04:57.653Z,83.00
2018-07-06T04:07:44.019Z,83.28
2018-07-06T04:10:30.562Z,82.98
2018-07-06T04:13:16.904Z,82.46
2018-07-06T04:16:03.444Z,82.27
2018-07-06T04:18:49.900Z,82.45
2018-07-06T04:21:36.427Z,82.82
2018-07-06T04:24:22.875Z,82.21
2018-07-06T04:27:10.015Z,81.59
2018-07-06T04:29:56.388Z,81.45
2018-07-06T04:32:42.795Z,80.02
2018-07-06T04:35:29.259Z,80.41
2018-07-06T04:38:15.652Z,79.97
2018-07-06T04:41:01.916Z,80.73
2018-07-06T04:43:48.263Z,80.69
2018-07-06T04:46:34.879Z,80.68
2018-07-06T04:49:21.319Z,80.22
2018-07-06T04:52:07.963Z,80.47
2018-07-06T04:54:54.302Z,79.92
2018-07-06T04:57:40.693Z,79.02
2018-07-06T05:00:28.106Z,76.87
2018-07-06T05:03:14.523Z,76.46
2018-07-06T05:06:00.883Z,75.49
2018-07-06T05:08:47.723Z,75.57
2018-07-06T05:11:34.387Z,76.77
2018-07-06T05:14:20.934Z,75.91
2018-07-06T05:17:07.373Z,77.09
2018-07-06T05:19:54.147Z,78.54
2018-07-06T05:22:40.628Z,78.26
2018-07-06T05:25:27.000Z,76.18
2018-07-06T05:28:13.335Z,76.62
2018-07-06T05:30:59.810Z,77.53
2018-07-06T05:33:46.175Z,77.09
2018-07-06T05:36:32.588Z,76.86
2018-07-06T05:39:18.963Z,77.75
2018-07-06T05:42:05.307Z,77.23
2018-07-06T05:44:51.822Z,75.43
2018-07-06T05:47:38.539Z,74.80
2018-07-06T05:50:24.858Z,74.46
2018-07-06T05:53:11.239Z,74.52
2018-07-06T05:55:57.963Z,75.64
2018-07-06T05:58:44.467Z,73.47
2018-07-06T06:01:30.857Z,71.67
2018-07-06T06:04:17.272Z,68.58
2018-07-06T06:07:03.758Z,68.02
2018-07-06T06:09:39.275Z,67.51
2018-07-06T06:12:08.458Z,65.51
2018-07-06T06:14:37.595Z,64.96
2018-07-06T06:17:07.008Z,66.02
2018-07-06T06:19:36.426Z,65.54
2018-07-06T06:22:05.775Z,64.57
2018-07-06T06:24:35.075Z,63.69
2018-07-06T06:27:04.255Z,62.17
2018-07-06T06:29:33.788Z,62.84
2018-07-06T06:32:03.863Z,63.28
2018-07-06T06:34:33.078Z,63.30
2018-07-06T06:37:02.831Z,64.92
2018-07-06T06:39:32.679Z,62.62
2018-07-06T06:42:02.152Z,61.73
2018-07-06T06:44:31.467Z,61.72
2018-07-06T06:47:00.955Z,62.79
2018-07-06T06:49:31.215Z,64.75
2018-07-06T06:52:00.687Z,64.66
2018-07-06T06:54:30.219Z,65.90
2018-07-06T06:56:59.435Z,64.93
2018-07-06T06:59:28.674Z,63.57
2018-07-06T07:01:57.960Z,60.28
2018-07-06T07:04:27.195Z,61.13
2018-07-06T07:06:56.416Z,59.34
2018-07-06T07:09:25.840Z,59.95
2018-07-06T07:11:55.039Z,60.94
2018-07-06T07:14:24.273Z,60.92
2018-07-06T07:16:53.855Z,57.52
2018-07-06T07:19:23.063Z,55.67
2018-07-06T07:21:52.251Z,56.46
2018-07-06T07:24:21.470Z,55.34
2018-07-06T07:26:50.839Z,51.84
2018-07-06T07:29:20.081Z,53.42
2018-07-06T07:31:49.262Z,52.27
2018-07-06T07:34:18.518Z,53.22
2018-07-06T07:36:47.936Z,53.47
2018-07-06T07:39:17.119Z,53.63
2018-07-06T07:41:46.307Z,55.06
2018-07-06T07:44:15.530Z,55.92
2018-07-06T07:46:44.729Z,54.16
2018-07-06T07:49:13.912Z,57.02
2018-07-06T07:51:57.120Z,57.93
2018-07-06T07:54:28.753Z,58.81
2018-07-06T07:56:58.878Z,56.32
2018-07-06T07:59:29.635Z,56.07
2018-07-06T08:01:59.803Z,49.90
2018-07-06T08:04:28.971Z,47.94
2018-07-06T08:06:58.393Z,48.65
2018-07-06T08:09:27.710Z,45.19
2018-07-06T08:11:58.359Z,44.52
2018-07-06T08:14:27.633Z,39.56
2018-07-06T08:16:56.938Z,40.05
2018-07-06T08:19:26.143Z,40.31
2018-07-06T08:21:55.451Z,39.90
2018-07-06T08:24:24.615Z,39.72
2018-07-06T08:26:53.807Z,39.86
2018-07-06T08:29:22.951Z,36.28
2018-07-06T08:31:52.135Z,36.56
2018-07-06T08:34:32.594Z,37.54
2018-07-06T08:37:25.843Z,36.07
2018-07-06T08:39:55.936Z,37.10
2018-07-06T08:42:26.446Z,36.80
2018-07-06T08:44:56.497Z,34.67
2018-07-06T08:47:26.291Z,32.91
2018-07-06T08:49:56.422Z,35.23
2018-07-06T08:52:25.668Z,35.41
2018-07-06T08:54:54.846Z,34.88
2018-07-06T08:57:25.059Z,34.30
2018-07-06T08:59:54.599Z,34.93
2018-07-06T09:02:24.371Z,33.23
2018-07-06T09:04:54.364Z,34.19
2018-07-06T09:07:24.199Z,34.81
2018-07-06T09:09:54.119Z,33.98
2018-07-06T09:12:23.598Z,35.75
2018-07-06T09:14:52.507Z,34.93
2018-07-06T09:17:22.023Z,35.09
2018-07-06T09:19:51.876Z,34.38
2018-07-06T09:22:21.667Z,31.65
2018-07-06T09:24:51.959Z,29.75
2018-07-06T09:27:21.640Z,30.68
2018-07-06T09:29:51.027Z,27.56
2018-07-06T09:32:20.563Z,30.25
2018-07-06T09:34:50.020Z,34.10
2018-07-06T09:37:19.240Z,35.55
2018-07-06T09:39:49.205Z,33.21
2018-07-06T09:42:18.878Z,32.61
2018-07-06T09:44:48.056Z,31.97
2018-07-06T09:47:18.027Z,30.65
2018-07-06T09:49:47.220Z,29.58
2018-07-06T09:52:16.592Z,29.34
2018-07-06T09:54:45.903Z,29.21
2018-07-06T09:57:15.124Z,30.13
2018-07-06T09:59:44.318Z,30.36
2018-07-06T10:02:13.506Z,32.62
2018-07-06T10:04:42.699Z,30.73
2018-07-06T10:07:11.892Z,28.57
2018-07-06T10:09:41.069Z,27.63
2018-07-06T10:12:10.543Z,26.59
2018-07-06T10:14:40.087Z,28.00
2018-07-06T10:17:09.584Z,28.48
2018-07-06T10:19:39.132Z,27.66
2018-07-06T10:22:08.251Z,27.45
2018-07-06T10:24:37.866Z,26.74
2018-07-06T10:27:07.042Z,28.71
2018-07-06T10:29:42.179Z,29.81
2018-07-06T10:32:20.602Z,31.15
2018-07-06T10:34:49.804Z,28.33
2018-07-06T10:37:20.248Z,27.03
2018-07-06T10:39:50.124Z,24.70
2018-07-06T10:42:19.532Z,25.60
2018-07-06T10:44:48.689Z,27.19
2018-07-06T10:47:18.385Z,27.55
2018-07-06T10:49:47.583Z,29.63
2018-07-06T10:52:17.796Z,29.70
2018-07-06T10:54:47.481Z,28.83
2018-07-06T10:57:16.705Z,29.34
2018-07-06T10:59:46.354Z,27.44
2018-07-06T11:02:15.523Z,27.68
2018-07-06T11:04:44.734Z,28.05
2018-07-06T11:07:13.927Z,28.46
2018-07-06T11:09:43.110Z,27.01
2018-07-06T11:12:12.291Z,27.87
2018-07-06T11:14:41.464Z,29.07
2018-07-06T11:17:10.659Z,28.21
2018-07-06T11:19:39.837Z,29.64
2018-07-06T11:22:09.039Z,28.84
2018-07-06T11:24:38.539Z,28.30
2018-07-06T11:27:07.728Z,27.10
2018-07-06T11:29:37.008Z,26.71
2018-07-06T11:32:06.474Z,27.91
2018-07-06T11:34:35.618Z,28.83
2018-07-06T11:37:04.823Z,27.80
2018-07-06T11:39:34.005Z,28.46
2018-07-06T11:42:03.215Z,28.42
2018-07-06T11:44:32.414Z,29.61
2018-07-06T11:47:01.591Z,27.20
2018-07-06T11:49:31.039Z,27.98
2018-07-06T11:52:00.215Z,26.74
2018-07-06T11:54:30.236Z,28.41
2018-07-06T11:56:59.389Z,26.91
2018-07-06T11:59:28.587Z,25.35
2018-07-06T12:01:57.908Z,27.75
2018-07-06T12:04:27.145Z,26.81
2018-07-06T12:06:56.422Z,25.44
2018-07-06T12:09:25.615Z,27.42
2018-07-06T12:11:55.024Z,25.95
2018-07-06T12:14:24.550Z,24.89
2018-07-06T12:16:53.721Z,24.17
2018-07-06T12:19:23.043Z,25.13
2018-07-06T12:21:52.235Z,23.21
2018-07-06T12:24:21.408Z,24.12
2018-07-06T12:26:50.599Z,24.20
2018-07-06T12:29:19.779Z,24.46
2018-07-06T12:31:49.070Z,23.27
2018-07-06T12:34:18.275Z,24.08
2018-07-06T12:36:47.532Z,24.08
2018-07-06T12:39:16.876Z,23.14
2018-07-06T12:41:46.044Z,23.71
2018-07-06T12:44:15.222Z,23.62
2018-07-06T12:46:44.511Z,22.76
2018-07-06T12:49:14.046Z,24.78
2018-07-06T12:51:43.207Z,23.02
2018-07-06T12:54:12.409Z,24.63
2018-07-06T12:56:42.580Z,24.27
2018-07-06T12:59:12.166Z,25.72
2018-07-06T13:01:41.462Z,24.05
2018-07-06T13:04:10.654Z,23.76
2018-07-06T13:06:39.847Z,24.27
2018-07-06T13:09:09.052Z,24.93
2018-07-06T13:11:38.774Z,24.10
2018-07-06T13:14:07.984Z,25.47
2018-07-06T13:16:37.167Z,27.53
2018-07-06T13:19:06.561Z,27.98
2018-07-06T13:21:36.043Z,28.15
2018-07-06T13:24:05.442Z,26.16
2018-07-06T13:26:34.624Z,25.80
2018-07-06T13:29:03.823Z,24.07
2018-07-06T13:31:33.607Z,24.69
2018-07-06T13:34:02.991Z,25.97
2018-07-06T13:36:32.187Z,26.08
2018-07-06T13:39:01.644Z,25.30
2018-07-06T13:41:30.995Z,25.13
2018-07-06T13:44:00.211Z,23.68
2018-07-06T13:46:29.612Z,25.78
2018-07-06T13:48:58.811Z,26.75
2018-07-06T13:51:28.291Z,25.00
2018-07-06T13:53:57.476Z,25.18
2018-07-06T13:56:26.659Z,25.36
2018-07-06T13:58:55.887Z,24.58
2018-07-06T14:01:25.079Z,24.21
2018-07-06T14:03:54.451Z,24.17
2018-07-06T14:06:23.651Z,25.35
2018-07-06T14:08:53.188Z,26.52
2018-07-06T14:11:22.613Z,24.73
2018-07-06T14:13:52.155Z,25.53
2018-07-06T14:16:21.371Z,25.03
2018-07-06T14:18:50.563Z,25.42
2018-07-06T14:21:19.767Z,26.20
2018-07-06T14:23:48.955Z,27.93
2018-07-06T14:26:18.127Z,27.52
2018-07-06T14:28:48.631Z,27.02
2018-07-06T14:31:18.052Z,26.76
2018-07-06T14:33:47.579Z,28.92
2018-07-06T14:36:17.135Z,29.79
2018-07-06T14:38:46.448Z,28.96
2018-07-06T14:41:15.671Z,29.81
2018-07-06T14:43:44.842Z,29.27
2018-07-06T14:46:14.008Z,30.12
2018-07-06T14:48:43.234Z,31.31
2018-07-06T14:51:12.430Z,29.66
2018-07-06T14:53:41.659Z,31.06
2018-07-06T14:56:10.855Z,30.93
2018-07-06T14:58:40.211Z,30.98
2018-07-06T15:01:09.427Z,32.05
2018-07-06T15:03:38.651Z,32.68
2018-07-06T15:06:07.829Z,32.91
2018-07-06T15:08:37.003Z,32.84
2018-07-06T15:11:06.214Z,32.48
2018-07-06T15:13:35.387Z,32.74
2018-07-06T15:16:04.747Z,32.01
2018-07-06T15:18:33.852Z,32.86
2018-07-06T15:21:03.080Z,33.13
2018-07-06T15:23:32.235Z,34.58
2018-07-06T15:26:01.507Z,32.85
2018-07-06T15:28:30.688Z,33.58
2018-07-06T15:30:59.867Z,33.99
2018-07-06T15:33:29.047Z,35.42
2018-07-06T15:35:58.252Z,36.36
2018-07-06T15:38:27.423Z,35.53
2018-07-06T15:40:56.647Z,35.85
2018-07-06T15:43:25.827Z,34.86
2018-07-06T15:45:55.041Z,35.52
2018-07-06T15:48:24.227Z,35.64
2018-07-06T15:50:53.654Z,36.49
2018-07-06T15:53:22.835Z,34.93
2018-07-06T15:55:52.019Z,35.85
2018-07-06T15:58:21.219Z,36.35
2018-07-06T16:00:50.407Z,35.99
2018-07-06T16:03:19.583Z,34.95
2018-07-06T16:05:49.168Z,35.10
2018-07-06T16:08:18.334Z,36.60
2018-07-06T16:10:47.655Z,35.34
2018-07-06T16:13:16.819Z,35.19
2018-07-06T16:15:46.003Z,35.96
2018-07-06T16:18:15.163Z,35.34
2018-07-06T16:20:44.392Z,37.10
2018-07-06T16:23:13.631Z,36.68
2018-07-06T16:25:42.793Z,36.30
2018-07-06T16:28:12.078Z,37.25
2018-07-06T16:30:41.266Z,35.97
2018-07-06T16:33:10.414Z,36.02
2018-07-06T16:35:39.806Z,35.27
2018-07-06T16:38:09.079Z,37.91
2018-07-06T16:40:38.325Z,37.78
2018-07-06T16:43:07.795Z,35.09
2018-07-06T16:45:37.116Z,36.46
2018-07-06T16:48:06.268Z,36.63
2018-07-06T16:50:35.687Z,36.99
2018-07-06T16:53:05.507Z,36.70
2018-07-06T16:55:34.671Z,37.77
2018-07-06T16:58:03.827Z,38.58
2018-07-06T17:00:33.027Z,38.83
2018-07-06T17:03:02.187Z,38.81
2018-07-06T17:05:31.370Z,38.94
2018-07-06T17:08:00.591Z,39.14
2018-07-06T17:10:29.759Z,38.66
2018-07-06T17:12:58.950Z,37.62
2018-07-06T17:15:28.129Z,38.38
2018-07-06T17:17:57.283Z,38.45
2018-07-06T17:20:26.451Z,39.62
2018-07-06T17:22:55.610Z,39.10
2018-07-06T17:25:24.795Z,39.09
2018-07-06T17:27:53.965Z,38.82
2018-07-06T17:30:23.118Z,38.98
2018-07-06T17:32:52.280Z,39.05
2018-07-06T17:35:21.464Z,38.98
2018-07-06T17:37:50.623Z,39.50
2018-07-06T17:40:19.819Z,40.19
2018-07-06T17:42:49.007Z,41.54
2018-07-06T17:45:18.191Z,41.60
2018-07-06T17:47:47.360Z,42.31
2018-07-06T17:50:16.573Z,42.77
2018-07-06T17:52:46.087Z,42.35
2018-07-06T17:55:15.514Z,42.46
2018-07-06T17:57:44.720Z,42.33
2018-07-06T18:00:14.190Z,42.34
2018-07-06T18:02:43.651Z,41.91
2018-07-06T18:05:12.946Z,42.36
2018-07-06T18:07:42.759Z,42.47
2018-07-06T18:10:11.935Z,43.14
2018-07-06T18:12:41.119Z,42.54
2018-07-06T18:15:10.554Z,42.86
2018-07-06T18:17:39.690Z,41.82
2018-07-06T18:20:08.883Z,42.17
2018-07-06T18:22:38.126Z,42.35
2018-07-06T18:25:07.427Z,42.11
2018-07-06T18:27:36.587Z,42.17
2018-07-06T18:30:06.004Z,42.11
2018-07-06T18:32:35.154Z,41.56
2018-07-06T18:35:04.339Z,42.61
2018-07-06T18:37:33.587Z,43.39
2018-07-06T18:40:02.712Z,43.08
2018-07-06T18:42:31.959Z,42.79
2018-07-06T18:45:01.112Z,43.59
2018-07-06T18:47:30.368Z,43.90
2018-07-06T18:49:59.427Z,44.79
2018-07-06T18:52:28.607Z,45.26
2018-07-06T18:54:58.123Z,45.79
2018-07-06T18:57:27.331Z,45.48
2018-07-06T18:59:56.543Z,47.34
2018-07-06T19:02:25.743Z,45.91
2018-07-06T19:04:55.088Z,46.64
2018-07-06T19:07:24.391Z,47.92
2018-07-06T19:09:53.551Z,48.54
2018-07-06T19:12:22.739Z,47.02
2018-07-06T19:14:52.027Z,48.92
2018-07-06T19:17:21.230Z,50.78
2018-07-06T19:19:50.631Z,51.51
2018-07-06T19:22:19.831Z,52.01
2018-07-06T19:24:49.015Z,52.68
2018-07-06T19:27:18.252Z,53.65
2018-07-06T19:29:47.575Z,53.77
2018-07-06T19:32:16.741Z,54.69
2018-07-06T19:34:45.911Z,55.30
2018-07-06T19:37:15.111Z,57.12
2018-07-06T19:39:44.276Z,58.96
2018-07-06T19:42:13.455Z,58.21
2018-07-06T19:44:42.598Z,59.38
2018-07-06T19:47:11.810Z,59.58
2018-07-06T19:49:40.951Z,60.51
2018-07-06T19:52:10.127Z,60.36
2018-07-06T19:54:39.259Z,61.35
2018-07-06T19:57:08.468Z,62.16
2018-07-06T19:59:37.641Z,62.34
2018-07-06T20:02:06.970Z,62.88
2018-07-06T20:04:36.135Z,63.49
2018-07-06T20:07:05.367Z,63.66
2018-07-06T20:09:34.540Z,64.07
2018-07-06T20:12:03.711Z,64.83
2018-07-06T20:14:32.883Z,65.20
2018-07-06T20:17:02.035Z,65.59
2018-07-06T20:19:31.567Z,65.58
2018-07-06T20:22:00.767Z,65.93
2018-07-06T20:24:30.139Z,66.70
2018-07-06T20:26:59.332Z,67.32
2018-07-06T20:29:28.487Z,67.66
2018-07-06T20:31:57.675Z,67.65
2018-07-06T20:34:27.066Z,67.60
2018-07-06T20:36:56.280Z,68.61
2018-07-06T20:39:25.603Z,68.74
2018-07-06T20:41:54.803Z,68.79
2018-07-06T20:44:23.966Z,69.02
2018-07-06T20:46:53.148Z,68.05
2018-07-06T20:49:22.319Z,68.00
2018-07-06T20:51:51.595Z,68.82
2018-07-06T20:54:20.787Z,69.02
2018-07-06T20:56:54.068Z,69.75
2018-07-06T20:59:23.238Z,69.62
2018-07-06T21:01:52.720Z,70.02
2018-07-06T21:04:22.408Z,70.26
2018-07-06T21:06:51.604Z,70.45
2018-07-06T21:09:20.767Z,70.92
2018-07-06T21:11:50.210Z,71.31
2018-07-06T21:14:19.595Z,70.78
2018-07-06T21:16:48.795Z,71.32
2018-07-06T21:19:17.975Z,70.74
2018-07-06T21:21:47.190Z,71.56
2018-07-06T21:24:16.667Z,71.73
2018-07-06T21:26:46.238Z,71.87
2018-07-06T21:29:15.402Z,72.45
2018-07-06T21:31:44.603Z,72.33
2018-07-06T21:34:13.775Z,71.91
2018-07-06T21:36:43.095Z,72.19
2018-07-06T21:39:12.267Z,71.73
2018-07-06T21:41:41.459Z,72.45
2018-07-06T21:44:10.675Z,72.40
2018-07-06T21:46:39.844Z,73.17
2018-07-06T21:49:09.027Z,73.42
2018-07-06T21:51:38.196Z,72.85
2018-07-06T21:54:07.531Z,72.85
2018-07-06T21:56:36.768Z,72.56
2018-07-06T21:59:06.203Z,72.96
2018-07-06T22:01:35.395Z,72.80
2018-07-06T22:04:04.572Z,73.44
2018-07-06T22:06:33.759Z,73.42
2018-07-06T22:09:03.139Z,73.37
2018-07-06T22:11:32.307Z,73.50
2018-07-06T22:14:01.510Z,73.35
2018-07-06T22:16:31.196Z,73.77
2018-07-06T22:19:00.703Z,74.01
2018-07-06T22:21:30.318Z,73.98
2018-07-06T22:23:59.979Z,73.93
2018-07-06T22:26:29.163Z,73.88
2018-07-06T22:28:58.412Z,74.02
2018-07-06T22:31:27.567Z,74.42
2018-07-06T22:33:56.759Z,74.24
2018-07-06T22:36:25.944Z,74.65
2018-07-06T22:38:55.126Z,75.26
2018-07-06T22:41:24.629Z,74.65
2018-07-06T22:43:54.299Z,74.54
2018-07-06T22:46:24.699Z,74.84
2018-07-06T22:48:53.891Z,74.48
2018-07-06T22:51:23.102Z,75.16
2018-07-06T22:53:52.295Z,74.94
2018-07-06T22:56:21.495Z,75.10
2018-07-06T22:58:53.763Z,74.96
2018-07-06T23:01:22.942Z,75.39
2018-07-06T23:03:52.123Z,75.75
2018-07-06T23:06:21.363Z,75.37
2018-07-06T23:08:50.519Z,76.41
2018-07-06T23:11:19.687Z,76.91
2018-07-06T23:13:48.879Z,76.34
2018-07-06T23:16:18.064Z,76.69
2018-07-06T23:18:47.583Z,77.05
2018-07-06T23:21:16.776Z,76.73
2018-07-06T23:23:46.379Z,76.88
2018-07-06T23:26:15.796Z,76.98
2018-07-06T23:28:44.991Z,76.67
2018-07-06T23:31:14.183Z,77.46
2018-07-06T23:33:43.378Z,77.36
2018-07-06T23:36:12.579Z,77.54
2018-07-06T23:38:41.819Z,77.67
2018-07-06T23:41:11.429Z,77.69
2018-07-06T23:43:40.631Z,77.06
2018-07-06T23:46:09.802Z,76.57
2018-07-06T23:48:39.042Z,76.39
2018-07-06T23:51:08.223Z,76.49
2018-07-06T23:53:37.431Z,77.34
2018-07-06T23:56:06.616Z,77.68
2018-07-06T23:58:35.835Z,77.46
